createdAt,value
2022-10-05T00:01:22.401Z,11.20
2022-10-05T00:03:49.182Z,12.60
2022-10-05T00:06:15.841Z,12.90
2022-10-05T00:08:43.345Z,12.20
2022-10-05T00:11:15.189Z,12.40
2022-10-05T00:13:42.330Z,10.80
2022-10-05T00:16:22.268Z,10.50
2022-10-05T00:18:51.961Z,11.40
2022-10-05T00:21:26.048Z,12.00
2022-10-05T00:23:56.885Z,13.10
2022-10-05T00:26:26.971Z,12.50
2022-10-05T00:28:54.776Z,11.50
2022-10-05T00:31:30.717Z,9.90
2022-10-05T00:33:58.009Z,9.10
2022-10-05T00:36:26.166Z,8.70
2022-10-05T00:38:53.274Z,9.30
2022-10-05T00:41:56.935Z,9.20
2022-10-05T00:45:15.362Z,9.00
2022-10-05T00:48:33.733Z,9.00
2022-10-05T00:51:25.710Z,9.00
2022-10-05T00:54:17.448Z,10.50
2022-10-05T00:57:31.789Z,11.40
2022-10-05T01:00:04.847Z,10.30
2022-10-05T01:02:59.272Z,9.30
2022-10-05T01:05:49.929Z,9.00
2022-10-05T01:08:51.229Z,8.60
2022-10-05T01:11:45.313Z,9.30
2022-10-05T01:14:27.621Z,7.60
2022-10-05T01:17:18.482Z,7.80
2022-10-05T01:20:15.080Z,8.80
2022-10-05T01:23:36.102Z,8.20
2022-10-05T01:26:20.618Z,8.00
2022-10-05T01:29:06.250Z,7.70
2022-10-05T01:31:45.050Z,9.30
2022-10-05T01:34:35.642Z,8.10
2022-10-05T01:37:24.697Z,8.60
2022-10-05T01:40:23.456Z,8.60
2022-10-05T01:43:27.998Z,7.90
2022-10-05T01:46:28.802Z,9.40
2022-10-05T01:49:28.306Z,8.50
2022-10-05T01:52:18.525Z,8.60
2022-10-05T01:55:14.153Z,7.70
2022-10-05T01:58:03.250Z,8.40
2022-10-05T02:00:38.949Z,7.10
2022-10-05T02:03:19.276Z,7.30
2022-10-05T02:06:04.269Z,7.50
2022-10-05T02:08:39.509Z,8.30
2022-10-05T02:11:24.112Z,7.20
2022-10-05T02:13:58.194Z,7.30
2022-10-05T02:16:44.003Z,6.90
2022-10-05T02:19:32.081Z,7.60
2022-10-05T02:22:21.583Z,7.10
2022-10-05T02:24:55.496Z,7.40
2022-10-05T02:27:29.835Z,7.60
2022-10-05T02:30:05.899Z,7.70
2022-10-05T02:32:49.689Z,8.60
2022-10-05T02:35:19.858Z,8.40
2022-10-05T02:38:16.940Z,8.90
2022-10-05T02:40:59.809Z,8.10
2022-10-05T02:43:39.047Z,7.90
2022-10-05T02:46:41.827Z,8.20
2022-10-05T02:49:48.120Z,7.80
2022-10-05T02:52:27.613Z,7.10
2022-10-05T02:55:19.172Z,7.30
2022-10-05T02:58:11.961Z,7.30
2022-10-05T03:01:20.165Z,8.30
2022-10-05T03:04:46.409Z,6.70
2022-10-05T03:07:23.563Z,6.80
2022-10-05T03:10:04.903Z,7.30
2022-10-05T03:12:52.661Z,8.50
2022-10-05T03:16:04.335Z,8.10
2022-10-05T03:19:22.192Z,7.70
2022-10-05T03:22:26.089Z,7.90
2022-10-05T03:25:47.156Z,7.60
2022-10-05T03:28:26.738Z,7.60
2022-10-05T03:31:18.480Z,10.00
2022-10-05T03:34:00.200Z,8.40
2022-10-05T03:36:29.643Z,7.40
2022-10-05T03:39:20.590Z,7.50
2022-10-05T03:42:05.527Z,8.30
2022-10-05T03:44:39.236Z,7.30
2022-10-05T03:47:30.008Z,7.00
2022-10-05T03:50:31.553Z,7.00
2022-10-05T03:53:06.846Z,7.00
2022-10-05T03:55:45.424Z,7.70
2022-10-05T03:58:42.617Z,8.40
2022-10-05T04:01:18.640Z,7.60
2022-10-05T04:03:57.174Z,8.00
2022-10-05T04:06:33.271Z,7.60
2022-10-05T04:09:11.208Z,6.90
2022-10-05T04:11:52.431Z,6.70
2022-10-05T04:14:26.786Z,6.70
2022-10-05T04:17:06.162Z,6.10
2022-10-05T04:19:45.833Z,6.40
2022-10-05T04:22:25.152Z,7.20
2022-10-05T04:25:16.766Z,6.50
2022-10-05T04:27:54.907Z,7.40
2022-10-05T04:30:24.606Z,7.30
2022-10-05T04:32:57.773Z,7.60
2022-10-05T04:35:53.435Z,5.80
2022-10-05T04:38:35.060Z,5.70
2022-10-05T04:41:37.275Z,6.30
2022-10-05T04:44:37.526Z,6.10
2022-10-05T04:47:38.702Z,5.20
2022-10-05T04:50:24.060Z,6.70
2022-10-05T04:53:23.209Z,6.50
2022-10-05T04:56:03.302Z,6.50
2022-10-05T04:58:45.443Z,5.90
2022-10-05T05:01:41.772Z,6.00
2022-10-05T05:04:51.814Z,6.10
2022-10-05T05:07:52.913Z,6.20
2022-10-05T05:10:31.694Z,6.90
2022-10-05T05:13:13.660Z,7.70
2022-10-05T05:16:04.667Z,8.00
2022-10-05T05:19:12.823Z,7.60
2022-10-05T05:22:00.159Z,8.10
2022-10-05T05:24:40.770Z,7.30
2022-10-05T05:27:38.776Z,6.70
2022-10-05T05:30:24.562Z,6.60
2022-10-05T05:33:13.748Z,6.50
2022-10-05T05:36:09.154Z,7.80
2022-10-05T05:38:49.150Z,6.80
2022-10-05T05:41:35.226Z,6.90
2022-10-05T05:44:17.235Z,6.10
2022-10-05T05:47:35.142Z,6.50
2022-10-05T05:50:41.164Z,6.60
2022-10-05T05:53:42.793Z,6.30
2022-10-05T05:56:21.973Z,6.50
2022-10-05T05:59:02.598Z,7.60
2022-10-05T06:01:47.354Z,7.50
2022-10-05T06:04:31.583Z,7.80
2022-10-05T06:07:03.545Z,7.10
2022-10-05T06:09:41.405Z,7.20
2022-10-05T06:12:16.759Z,6.90
2022-10-05T06:14:51.279Z,6.10
2022-10-05T06:17:35.133Z,6.70
2022-10-05T06:20:09.268Z,6.40
2022-10-05T06:22:47.253Z,6.40
2022-10-05T06:25:13.655Z,6.00
2022-10-05T06:28:13.409Z,5.80
2022-10-05T06:31:03.788Z,6.20
2022-10-05T06:33:52.135Z,5.90
2022-10-05T06:36:32.513Z,6.40
2022-10-05T06:39:18.672Z,6.10
2022-10-05T06:42:16.968Z,7.40
2022-10-05T06:45:21.440Z,7.00
2022-10-05T06:48:25.446Z,7.00
2022-10-05T06:51:07.905Z,7.30
2022-10-05T06:53:53.403Z,7.50
2022-10-05T06:56:50.353Z,6.80
2022-10-05T06:59:42.989Z,6.60
2022-10-05T07:02:56.122Z,6.10
2022-10-05T07:05:44.446Z,6.80
2022-10-05T07:08:20.439Z,7.40
2022-10-05T07:11:30.969Z,6.20
2022-10-05T07:14:03.730Z,7.50
2022-10-05T07:17:18.947Z,8.00
2022-10-05T07:20:09.822Z,16.50
2022-10-05T07:22:59.275Z,7.00
2022-10-05T07:25:41.115Z,5.30
2022-10-05T07:28:30.043Z,8.70
2022-10-05T07:31:06.855Z,15.40
2022-10-05T07:33:46.208Z,11.00
2022-10-05T07:36:54.843Z,6.60
2022-10-05T07:39:58.551Z,5.60
2022-10-05T07:42:56.468Z,6.30
2022-10-05T07:45:42.940Z,6.70
2022-10-05T07:48:22.514Z,6.50
2022-10-05T07:51:22.745Z,6.50
2022-10-05T07:54:16.000Z,6.30
2022-10-05T07:56:47.065Z,7.20
2022-10-05T07:59:31.253Z,6.20
2022-10-05T08:02:18.825Z,6.20
2022-10-05T08:04:59.726Z,6.50
2022-10-05T08:07:31.539Z,7.20
2022-10-05T08:10:33.951Z,6.10
2022-10-05T08:13:16.726Z,6.10
2022-10-05T08:15:49.505Z,6.60
2022-10-05T08:18:37.311Z,6.00
2022-10-05T08:21:11.930Z,8.20
2022-10-05T08:23:56.659Z,6.10
2022-10-05T08:27:01.190Z,5.90
2022-10-05T08:30:01.538Z,7.10
2022-10-05T08:32:45.590Z,5.20
2022-10-05T08:35:28.267Z,5.40
2022-10-05T08:37:55.979Z,4.60
2022-10-05T08:40:46.938Z,4.40
2022-10-05T08:43:44.566Z,4.60
2022-10-05T08:46:58.137Z,5.70
2022-10-05T08:50:18.197Z,4.90
2022-10-05T08:53:41.738Z,4.80
2022-10-05T08:56:19.071Z,4.40
2022-10-05T08:59:14.215Z,4.80
2022-10-05T09:02:13.607Z,4.60
2022-10-05T09:05:44.754Z,4.60
2022-10-05T09:08:35.972Z,4.30
2022-10-05T09:11:17.688Z,4.90
2022-10-05T09:14:11.182Z,5.40
2022-10-05T09:16:52.985Z,4.70
2022-10-05T09:19:43.576Z,4.60
2022-10-05T09:22:24.149Z,4.70
2022-10-05T09:24:57.170Z,5.00
2022-10-05T09:27:37.853Z,5.30
2022-10-05T09:30:36.422Z,4.60
2022-10-05T09:33:47.589Z,5.60
2022-10-05T09:36:48.097Z,5.60
2022-10-05T09:39:44.209Z,4.40
2022-10-05T09:42:37.024Z,4.50
2022-10-05T09:45:41.348Z,4.10
2022-10-05T09:49:18.943Z,4.50
2022-10-05T09:52:41.100Z,5.50
2022-10-05T09:55:37.831Z,6.30
2022-10-05T09:58:48.924Z,5.80
2022-10-05T10:01:33.801Z,3.70
2022-10-05T10:04:36.439Z,4.30
2022-10-05T10:08:00.680Z,4.70
2022-10-05T10:10:56.124Z,4.60
2022-10-05T10:14:02.798Z,3.70
2022-10-05T10:17:37.693Z,4.60
2022-10-05T10:20:21.492Z,5.20
2022-10-05T10:22:57.548Z,3.60
2022-10-05T10:26:02.515Z,4.10
2022-10-05T10:28:54.538Z,7.80
2022-10-05T10:31:55.988Z,5.00
2022-10-05T10:34:53.308Z,3.70
2022-10-05T10:37:52.343Z,3.80
2022-10-05T10:40:43.015Z,3.60
2022-10-05T10:43:55.606Z,3.80
2022-10-05T10:46:45.579Z,3.70
2022-10-05T10:49:47.810Z,4.40
2022-10-05T10:52:56.699Z,3.80
2022-10-05T10:56:04.095Z,3.90
2022-10-05T10:59:07.638Z,3.80
2022-10-05T11:02:18.170Z,3.90
2022-10-05T11:05:28.639Z,3.70
2022-10-05T11:08:35.072Z,3.70
2022-10-05T11:11:32.884Z,3.60
2022-10-05T11:14:47.190Z,3.10
2022-10-05T11:17:44.697Z,3.60
2022-10-05T11:20:48.063Z,2.90
2022-10-05T11:24:12.801Z,2.90
2022-10-05T11:27:17.439Z,3.00
2022-10-05T11:30:35.285Z,2.50
2022-10-05T11:33:36.260Z,2.50
2022-10-05T11:36:33.672Z,2.60
2022-10-05T11:39:30.802Z,2.60
2022-10-05T11:42:30.981Z,3.10
2022-10-05T11:45:23.339Z,2.80
2022-10-05T11:48:42.746Z,2.90
2022-10-05T11:51:34.754Z,2.80
2022-10-05T11:54:52.110Z,2.70
2022-10-05T11:57:53.252Z,2.80
2022-10-05T12:00:24.894Z,2.90
2022-10-05T12:03:19.280Z,2.60
2022-10-05T12:06:21.909Z,4.60
2022-10-05T12:09:17.797Z,4.00
2022-10-05T12:12:18.692Z,5.00
2022-10-05T12:15:01.601Z,3.80
2022-10-05T12:17:48.211Z,3.30
2022-10-05T12:20:28.052Z,3.30
2022-10-05T12:23:15.013Z,2.80
2022-10-05T12:25:49.923Z,2.40
2022-10-05T12:28:27.587Z,3.10
2022-10-05T12:31:05.242Z,2.90
2022-10-05T12:33:47.340Z,2.80
2022-10-05T12:36:26.352Z,4.80
2022-10-05T12:39:13.808Z,3.00
2022-10-05T12:41:57.700Z,3.90
2022-10-05T12:45:25.852Z,3.50
2022-10-05T12:48:14.567Z,2.90
2022-10-05T12:50:49.206Z,2.70
2022-10-05T12:53:50.233Z,3.40
2022-10-05T12:56:44.717Z,2.90
2022-10-05T12:59:40.369Z,4.20
2022-10-05T13:02:43.812Z,2.60
2022-10-05T13:05:10.151Z,3.00
2022-10-05T13:08:17.960Z,2.30
2022-10-05T13:11:33.020Z,2.50
2022-10-05T13:14:19.775Z,2.80
2022-10-05T13:17:14.668Z,2.50
2022-10-05T13:19:56.216Z,2.80
2022-10-05T13:22:48.502Z,3.80
2022-10-05T13:25:32.774Z,3.20
2022-10-05T13:28:02.076Z,2.60
2022-10-05T13:30:29.644Z,2.50
2022-10-05T13:33:21.524Z,2.80
2022-10-05T13:36:14.723Z,2.50
2022-10-05T13:39:05.612Z,2.40
2022-10-05T13:42:32.865Z,2.30
2022-10-05T13:45:20.580Z,2.00
2022-10-05T13:48:41.307Z,2.60
2022-10-05T13:51:18.357Z,2.30
2022-10-05T13:53:59.516Z,2.10
2022-10-05T13:56:33.420Z,2.10
2022-10-05T13:59:18.987Z,2.40
2022-10-05T14:02:07.591Z,2.40
2022-10-05T14:04:50.789Z,2.20
2022-10-05T14:07:56.530Z,2.50
2022-10-05T14:10:44.391Z,2.60
2022-10-05T14:13:46.618Z,2.10
2022-10-05T14:16:13.168Z,2.30
2022-10-05T14:19:05.808Z,2.50
2022-10-05T14:21:49.524Z,2.20
2022-10-05T14:24:54.682Z,2.20
2022-10-05T14:27:33.212Z,2.20
2022-10-05T14:30:03.110Z,2.50
2022-10-05T14:32:47.731Z,2.20
2022-10-05T14:35:18.453Z,3.10
2022-10-05T14:37:53.909Z,2.90
2022-10-05T14:40:38.149Z,2.60
2022-10-05T14:43:13.844Z,5.20
2022-10-05T14:46:15.070Z,3.30
2022-10-05T14:48:45.122Z,2.70
2022-10-05T14:51:32.370Z,2.60
2022-10-05T14:54:29.067Z,2.50
2022-10-05T14:57:10.093Z,3.40
2022-10-05T15:00:11.976Z,3.20
2022-10-05T15:02:59.708Z,2.90
2022-10-05T15:05:43.430Z,3.10
2022-10-05T15:08:31.369Z,3.50
2022-10-05T15:11:07.517Z,9.80
2022-10-05T15:13:41.777Z,4.10
2022-10-05T15:16:25.953Z,3.90
2022-10-05T15:19:44.758Z,5.70
2022-10-05T15:22:48.802Z,4.50
2022-10-05T15:25:23.089Z,4.00
2022-10-05T15:28:48.320Z,3.80
2022-10-05T15:31:48.761Z,4.10
2022-10-05T15:34:37.419Z,4.90
2022-10-05T15:37:24.539Z,3.00
2022-10-05T15:40:03.688Z,6.20
2022-10-05T15:42:41.502Z,5.30
2022-10-05T15:45:23.466Z,4.10
2022-10-05T15:48:00.968Z,3.30
2022-10-05T15:50:35.133Z,3.20
2022-10-05T15:53:14.412Z,3.60
2022-10-05T15:56:03.032Z,8.60
2022-10-05T15:58:55.743Z,6.50
2022-10-05T16:01:52.501Z,8.00
2022-10-05T16:04:54.683Z,6.30
2022-10-05T16:07:50.697Z,6.20
2022-10-05T16:10:22.209Z,6.60
2022-10-05T16:13:05.715Z,8.50
2022-10-05T16:15:50.119Z,8.60
2022-10-05T16:19:01.055Z,9.30
2022-10-05T16:21:58.394Z,6.30
2022-10-05T16:24:59.661Z,5.50
2022-10-05T16:28:29.258Z,5.60
2022-10-05T16:31:12.818Z,4.60
2022-10-05T16:34:09.442Z,5.80
2022-10-05T16:37:20.541Z,5.90
2022-10-05T16:39:55.639Z,5.80
2022-10-05T16:43:03.104Z,6.00
2022-10-05T16:45:58.386Z,5.10
2022-10-05T16:48:31.015Z,7.10
2022-10-05T16:51:24.919Z,9.00
2022-10-05T16:54:09.891Z,7.00
2022-10-05T16:57:22.165Z,5.20
2022-10-05T17:00:14.912Z,4.60
2022-10-05T17:03:13.303Z,4.50
2022-10-05T17:06:13.410Z,5.40
2022-10-05T17:09:14.475Z,8.00
2022-10-05T17:11:54.048Z,9.40
2022-10-05T17:15:14.635Z,9.90
2022-10-05T17:18:23.559Z,7.20
2022-10-05T17:21:07.917Z,6.40
2022-10-05T17:23:57.577Z,7.30
2022-10-05T17:26:45.861Z,6.90
2022-10-05T17:29:27.994Z,5.80
2022-10-05T17:32:06.330Z,5.50
2022-10-05T17:34:36.346Z,6.00
2022-10-05T17:37:38.999Z,7.60
2022-10-05T17:40:38.605Z,7.70
2022-10-05T17:43:17.186Z,9.30
2022-10-05T17:45:43.591Z,10.60
2022-10-05T17:48:12.977Z,10.10
2022-10-05T17:51:08.366Z,8.10
2022-10-05T17:54:05.712Z,8.60
2022-10-05T17:56:53.667Z,13.60
2022-10-05T17:59:58.999Z,12.10
2022-10-05T18:02:38.461Z,9.30
2022-10-05T18:05:04.929Z,9.10
2022-10-05T18:07:37.127Z,8.50
2022-10-05T18:10:09.747Z,7.50
2022-10-05T18:12:36.079Z,7.00
2022-10-05T18:15:22.331Z,6.90
2022-10-05T18:17:57.360Z,7.60
2022-10-05T18:20:32.578Z,8.10
2022-10-05T18:23:09.500Z,10.10
2022-10-05T18:25:53.075Z,7.00
2022-10-05T18:28:47.245Z,7.60
2022-10-05T18:31:42.202Z,8.40
2022-10-05T18:34:34.971Z,8.10
2022-10-05T18:38:00.745Z,7.20
2022-10-05T18:40:54.062Z,6.90
2022-10-05T18:43:38.007Z,8.10
2022-10-05T18:46:22.572Z,7.20
2022-10-05T18:49:51.858Z,7.40
2022-10-05T18:53:05.033Z,6.60
2022-10-05T18:56:12.152Z,6.10
2022-10-05T18:58:53.208Z,7.40
2022-10-05T19:02:02.165Z,7.50
2022-10-05T19:05:00.115Z,6.90
2022-10-05T19:07:38.654Z,6.30
2022-10-05T19:10:40.044Z,6.60
2022-10-05T19:13:20.739Z,6.70
2022-10-05T19:16:03.123Z,6.50
2022-10-05T19:19:22.290Z,6.90
2022-10-05T19:22:12.591Z,6.70
2022-10-05T19:24:57.097Z,6.30
2022-10-05T19:28:04.142Z,5.70
2022-10-05T19:31:21.341Z,5.70
2022-10-05T19:34:33.206Z,6.80
2022-10-05T19:37:25.028Z,6.20
2022-10-05T19:40:09.676Z,5.70
2022-10-05T19:43:21.039Z,5.40
2022-10-05T19:46:14.154Z,7.70
2022-10-05T19:48:52.340Z,7.70
2022-10-05T19:51:29.299Z,6.80
2022-10-05T19:54:29.140Z,6.30
2022-10-05T19:56:57.802Z,8.10
2022-10-05T19:59:32.567Z,7.30
2022-10-05T20:01:59.486Z,8.50
2022-10-05T20:04:40.888Z,9.50
2022-10-05T20:07:15.799Z,8.20
2022-10-05T20:09:59.121Z,6.80
2022-10-05T20:13:01.534Z,7.20
2022-10-05T20:16:13.575Z,6.10
2022-10-05T20:19:07.685Z,6.40
2022-10-05T20:21:59.820Z,6.00
2022-10-05T20:24:29.693Z,5.80
2022-10-05T20:27:02.773Z,5.60
2022-10-05T20:29:37.654Z,5.70
2022-10-05T20:32:12.186Z,5.30
2022-10-05T20:34:42.208Z,5.60
2022-10-05T20:37:11.577Z,5.80
2022-10-05T20:39:39.349Z,5.40
2022-10-05T20:42:07.770Z,5.40
2022-10-05T20:44:36.408Z,5.20
2022-10-05T20:47:04.862Z,6.80
2022-10-05T20:49:32.528Z,7.30
2022-10-05T20:51:59.247Z,6.10
2022-10-05T20:54:27.598Z,6.40
2022-10-05T20:56:55.886Z,5.60
2022-10-05T20:59:24.943Z,7.10
2022-10-05T21:01:52.450Z,7.30
2022-10-05T21:04:23.254Z,7.50
2022-10-05T21:06:49.800Z,5.70
2022-10-05T21:09:19.504Z,6.40
2022-10-05T21:11:49.981Z,5.40
2022-10-05T21:14:17.273Z,7.20
2022-10-05T21:16:45.858Z,6.80
2022-10-05T21:19:14.695Z,6.50
2022-10-05T21:21:46.001Z,6.10
2022-10-05T21:24:14.974Z,6.80
2022-10-05T21:26:42.521Z,6.10
2022-10-05T21:29:12.810Z,6.50
2022-10-05T21:31:40.087Z,6.00
2022-10-05T21:34:07.520Z,5.30
2022-10-05T21:36:34.575Z,5.50
2022-10-05T21:39:01.524Z,5.80
2022-10-05T21:41:28.265Z,6.30
2022-10-05T21:43:54.789Z,5.60
2022-10-05T21:46:25.777Z,6.10
2022-10-05T21:48:54.310Z,6.30
2022-10-05T21:51:25.367Z,6.10
2022-10-05T21:54:03.710Z,6.30
2022-10-05T21:56:38.610Z,6.80
2022-10-05T21:59:10.153Z,6.50
2022-10-05T22:01:36.898Z,6.40
2022-10-05T22:04:07.403Z,6.90
2022-10-05T22:06:36.223Z,6.10
2022-10-05T22:09:05.444Z,6.50
2022-10-05T22:11:32.416Z,6.50
2022-10-05T22:14:02.738Z,6.80
2022-10-05T22:16:34.219Z,6.60
2022-10-05T22:19:16.411Z,6.90
2022-10-05T22:21:42.984Z,6.40
2022-10-05T22:24:11.652Z,6.70
2022-10-05T22:26:41.929Z,6.80
2022-10-05T22:29:09.550Z,7.00
2022-10-05T22:31:36.915Z,6.60
2022-10-05T22:34:03.455Z,7.50
2022-10-05T22:36:30.082Z,7.00
2022-10-05T22:38:56.585Z,7.00
2022-10-05T22:41:23.093Z,6.20
2022-10-05T22:43:50.851Z,5.90
2022-10-05T22:46:18.499Z,5.50
2022-10-05T22:48:45.088Z,5.80
2022-10-05T22:51:11.879Z,5.80
2022-10-05T22:53:38.535Z,5.60
2022-10-05T22:56:13.190Z,6.00
2022-10-05T22:58:41.614Z,6.90
2022-10-05T23:01:11.996Z,5.80
2022-10-05T23:03:38.809Z,5.60
2022-10-05T23:06:20.222Z,5.80
2022-10-05T23:08:47.542Z,5.40
2022-10-05T23:11:17.463Z,5.50
2022-10-05T23:13:44.741Z,5.50
2022-10-05T23:16:14.968Z,5.10
2022-10-05T23:18:42.493Z,5.60
2022-10-05T23:21:11.071Z,4.80
2022-10-05T23:23:40.372Z,5.10
2022-10-05T23:26:10.871Z,4.80
2022-10-05T23:28:43.190Z,5.00
2022-10-05T23:31:09.840Z,5.10
2022-10-05T23:33:36.590Z,5.60
2022-10-05T23:36:14.042Z,5.60
2022-10-05T23:38:40.632Z,5.00
2022-10-05T23:41:08.699Z,5.90
2022-10-05T23:43:36.761Z,5.70
2022-10-05T23:46:05.878Z,5.40
2022-10-05T23:48:34.061Z,5.40
2022-10-05T23:51:00.574Z,4.70
2022-10-05T23:53:27.429Z,4.70
2022-10-05T23:55:54.864Z,4.60
2022-10-05T23:58:22.589Z,4.60
